createdAt,value
2023-02-18T00:02:24.656Z,5.53
2023-02-18T00:07:26.732Z,5.30
2023-02-18T00:12:30.227Z,5.95
2023-02-18T00:17:32.055Z,6.38
2023-02-18T00:22:33.930Z,6.20
2023-02-18T00:27:35.788Z,4.90
2023-02-18T00:32:38.252Z,6.35
2023-02-18T00:37:40.080Z,5.18
2023-02-18T00:42:41.914Z,5.63
2023-02-18T00:47:43.790Z,5.20
2023-02-18T00:52:46.008Z,5.30
2023-02-18T00:57:47.829Z,4.20
2023-02-18T01:02:54.043Z,4.13
2023-02-18T01:07:57.441Z,3.85
2023-02-18T01:12:59.392Z,3.10
2023-02-18T01:18:01.529Z,2.70
2023-02-18T01:23:04.552Z,1.83
2023-02-18T01:28:08.381Z,1.77
2023-02-18T01:33:10.965Z,1.95
2023-02-18T01:38:13.781Z,2.05
2023-02-18T01:43:16.471Z,1.13
2023-02-18T01:48:53.967Z,1.25
2023-02-18T01:53:55.820Z,1.10
2023-02-18T01:59:05.081Z,1.17
2023-02-18T02:04:07.017Z,1.30
2023-02-18T02:09:12.810Z,1.23
2023-02-18T02:14:26.888Z,1.83
2023-02-18T02:19:41.934Z,1.15
2023-02-18T02:25:25.106Z,1.25
2023-02-18T02:30:47.728Z,1.58
2023-02-18T02:35:59.764Z,1.77
2023-02-18T02:41:15.880Z,1.77
2023-02-18T02:46:24.266Z,1.27
2023-02-18T02:51:28.933Z,1.45
2023-02-18T02:56:31.926Z,2.08
2023-02-18T03:02:02.071Z,1.88
2023-02-18T03:07:07.049Z,2.17
2023-02-18T03:12:34.918Z,2.22
2023-02-18T03:17:55.655Z,2.10
2023-02-18T03:23:00.254Z,1.90
2023-02-18T03:28:07.427Z,1.98
2023-02-18T03:33:14.403Z,1.60
2023-02-18T03:38:21.375Z,1.77
2023-02-18T03:43:23.899Z,2.08
2023-02-18T03:48:25.950Z,1.42
2023-02-18T03:53:27.768Z,2.03
2023-02-18T03:58:29.644Z,2.60
2023-02-18T04:03:31.993Z,2.75
2023-02-18T04:08:33.934Z,2.50
2023-02-18T04:13:35.791Z,2.00
2023-02-18T04:18:37.587Z,3.35
2023-02-18T04:23:39.433Z,2.60
2023-02-18T04:28:41.252Z,3.20
2023-02-18T04:33:43.088Z,2.22
2023-02-18T04:38:44.960Z,2.45
2023-02-18T04:43:46.826Z,2.67
2023-02-18T04:48:48.636Z,2.83
2023-02-18T04:53:50.690Z,2.60
2023-02-18T04:58:52.517Z,3.00
2023-02-18T05:03:54.377Z,2.90
2023-02-18T05:08:56.219Z,2.90
2023-02-18T05:13:58.085Z,3.70
2023-02-18T05:19:00.136Z,3.88
2023-02-18T05:24:01.974Z,4.75
2023-02-18T05:29:04.377Z,4.70
2023-02-18T05:34:06.184Z,5.32
2023-02-18T05:39:07.985Z,5.35
2023-02-18T05:44:28.379Z,4.68
2023-02-18T05:49:32.344Z,5.68
2023-02-18T05:54:35.315Z,4.63
2023-02-18T05:59:37.177Z,5.07
2023-02-18T06:04:40.675Z,5.45
2023-02-18T06:09:42.517Z,5.40
2023-02-18T06:14:44.433Z,5.20
2023-02-18T06:19:46.655Z,5.82
2023-02-18T06:24:48.456Z,5.97
2023-02-18T06:29:50.321Z,4.75
2023-02-18T06:34:52.127Z,5.20
2023-02-18T06:39:53.967Z,6.30
2023-02-18T06:44:55.761Z,5.43
2023-02-18T06:49:57.586Z,5.18
2023-02-18T06:54:59.402Z,6.25
2023-02-18T07:00:01.915Z,5.07
2023-02-18T07:05:03.853Z,4.90
2023-02-18T07:10:06.963Z,5.72
2023-02-18T07:15:09.231Z,5.85
2023-02-18T07:20:11.169Z,5.25
2023-02-18T07:25:13.182Z,5.80
2023-02-18T07:30:15.753Z,5.32
2023-02-18T07:35:18.493Z,5.93
2023-02-18T07:40:22.374Z,5.43
2023-02-18T07:45:24.253Z,6.10
2023-02-18T07:50:26.164Z,7.60
2023-02-18T07:55:48.018Z,7.18
2023-02-18T08:00:50.797Z,7.10
2023-02-18T08:05:53.510Z,8.40
2023-02-18T08:10:59.638Z,8.10
2023-02-18T08:16:02.843Z,6.88
2023-02-18T08:21:04.928Z,6.78
2023-02-18T08:26:07.474Z,4.35
2023-02-18T08:31:28.897Z,4.30
2023-02-18T08:36:31.220Z,4.10
2023-02-18T08:41:33.232Z,3.25
2023-02-18T08:46:35.349Z,2.60
2023-02-18T08:51:37.579Z,2.35
2023-02-18T08:56:39.857Z,2.28
2023-02-18T09:01:41.736Z,2.00
2023-02-18T09:06:43.767Z,1.70
2023-02-18T09:11:46.047Z,2.08
2023-02-18T09:16:47.980Z,1.38
2023-02-18T09:21:49.890Z,1.60
2023-02-18T09:26:51.742Z,1.13
2023-02-18T09:31:53.649Z,1.33
2023-02-18T09:36:55.614Z,1.00
2023-02-18T09:42:00.963Z,1.00
2023-02-18T09:47:13.482Z,0.80
2023-02-18T09:52:20.681Z,0.88
2023-02-18T09:57:37.456Z,1.10
2023-02-18T10:02:44.710Z,1.23
2023-02-18T10:07:49.745Z,1.00
2023-02-18T10:12:53.243Z,1.17
2023-02-18T10:17:58.320Z,0.80
2023-02-18T10:23:02.694Z,0.70
2023-02-18T10:28:05.036Z,0.63
2023-02-18T10:33:22.735Z,0.90
2023-02-18T10:38:40.049Z,0.45
2023-02-18T10:43:55.631Z,0.52
2023-02-18T10:49:00.168Z,0.52
2023-02-18T10:54:02.199Z,0.50
2023-02-18T10:59:24.554Z,0.40
2023-02-18T11:04:37.565Z,0.60
2023-02-18T11:09:49.364Z,0.45
2023-02-18T11:15:16.728Z,0.38
2023-02-18T11:20:24.328Z,0.40
2023-02-18T11:25:33.186Z,0.40
2023-02-18T11:30:41.234Z,0.35
2023-02-18T11:35:50.648Z,0.30
2023-02-18T11:41:07.851Z,0.53
2023-02-18T11:46:12.528Z,0.30
2023-02-18T11:51:20.776Z,0.30
2023-02-18T11:56:22.659Z,0.60
2023-02-18T12:01:41.812Z,0.50
2023-02-18T12:06:50.920Z,0.80
2023-02-18T12:12:00.838Z,0.90
2023-02-18T12:17:14.531Z,1.10
2023-02-18T12:22:26.850Z,0.80
2023-02-18T12:27:50.946Z,0.98
2023-02-18T12:33:14.409Z,1.00
2023-02-18T12:38:21.899Z,1.20
2023-02-18T12:43:48.424Z,1.70
2023-02-18T12:49:05.775Z,3.17
2023-02-18T12:54:32.173Z,1.65
2023-02-18T12:59:43.845Z,2.33
2023-02-18T13:05:13.600Z,1.88
2023-02-18T13:10:38.738Z,1.33
2023-02-18T13:15:48.290Z,1.42
2023-02-18T13:20:55.714Z,1.00
2023-02-18T13:26:01.562Z,1.38
2023-02-18T13:31:37.752Z,1.13
2023-02-18T13:36:55.456Z,0.75
2023-02-18T13:42:25.136Z,0.90
2023-02-18T13:47:46.506Z,1.10
2023-02-18T13:52:50.735Z,1.00
2023-02-18T13:57:56.083Z,0.65
2023-02-18T14:03:02.553Z,0.77
2023-02-18T14:08:15.056Z,0.80
2023-02-18T14:13:55.776Z,1.65
2023-02-18T14:19:01.161Z,0.87
2023-02-18T14:24:07.294Z,1.00
2023-02-18T14:29:27.018Z,0.80
2023-02-18T14:34:41.916Z,0.90
2023-02-18T14:40:15.063Z,0.70
2023-02-18T14:45:20.124Z,0.88
2023-02-18T14:50:23.496Z,0.85
2023-02-18T14:55:45.216Z,0.80
2023-02-18T15:00:50.779Z,0.60
2023-02-18T15:05:52.914Z,0.68
2023-02-18T15:11:03.746Z,0.82
2023-02-18T15:16:08.936Z,1.10
2023-02-18T15:21:49.070Z,1.20
2023-02-18T15:26:52.147Z,1.60
2023-02-18T15:31:58.239Z,2.00
2023-02-18T15:37:01.917Z,2.28
2023-02-18T15:42:32.236Z,0.57
2023-02-18T15:47:34.764Z,0.90
2023-02-18T15:52:40.137Z,0.65
2023-02-18T15:57:44.308Z,0.52
2023-02-18T16:02:57.814Z,0.50
2023-02-18T16:08:08.428Z,0.60
2023-02-18T16:13:15.509Z,0.40
2023-02-18T16:18:24.857Z,0.38
2023-02-18T16:23:35.500Z,0.60
2023-02-18T16:28:37.887Z,0.52
2023-02-18T16:33:39.697Z,0.60
2023-02-18T16:38:42.052Z,1.50
2023-02-18T16:43:44.575Z,0.50
2023-02-18T16:48:50.326Z,1.05
2023-02-18T16:53:52.423Z,0.75
2023-02-18T16:58:54.810Z,1.10
2023-02-18T17:04:01.896Z,0.73
2023-02-18T17:09:20.508Z,0.52
2023-02-18T17:14:23.421Z,1.00
2023-02-18T17:19:25.293Z,1.10
2023-02-18T17:24:27.333Z,0.70
2023-02-18T17:29:29.163Z,1.80
2023-02-18T17:34:32.711Z,2.20
2023-02-18T17:39:34.654Z,1.15
2023-02-18T17:44:37.019Z,2.00
2023-02-18T17:49:38.954Z,0.80
2023-02-18T17:54:40.806Z,0.90
2023-02-18T17:59:44.345Z,0.57
2023-02-18T18:04:46.332Z,0.65
2023-02-18T18:09:48.369Z,0.70
2023-02-18T18:14:50.198Z,0.70
2023-02-18T18:19:52.134Z,1.48
2023-02-18T18:24:54.102Z,0.70
2023-02-18T18:29:55.915Z,0.57
2023-02-18T18:34:58.028Z,1.27
2023-02-18T18:39:59.852Z,1.00
2023-02-18T18:45:01.707Z,0.90
2023-02-18T18:50:03.653Z,0.93
2023-02-18T18:55:30.822Z,1.13
2023-02-18T19:00:43.735Z,1.17
2023-02-18T19:05:47.530Z,1.75
2023-02-18T19:10:55.901Z,1.10
2023-02-18T19:16:07.646Z,1.10
2023-02-18T19:21:10.303Z,1.15
2023-02-18T19:26:14.701Z,0.88
2023-02-18T19:31:16.961Z,1.23
2023-02-18T19:36:19.225Z,1.00
2023-02-18T19:41:21.214Z,0.90
2023-02-18T19:46:23.508Z,0.90
2023-02-18T19:51:26.332Z,0.88
2023-02-18T19:56:28.265Z,1.05
2023-02-18T20:01:30.189Z,0.75
2023-02-18T20:06:32.137Z,0.60
2023-02-18T20:11:34.386Z,1.30
2023-02-18T20:16:37.210Z,1.30
2023-02-18T20:21:39.710Z,1.10
2023-02-18T20:26:41.655Z,1.10
2023-02-18T20:31:44.747Z,0.95
2023-02-18T20:36:50.133Z,1.30
2023-02-18T20:41:52.440Z,1.45
2023-02-18T20:46:54.271Z,1.00
2023-02-18T20:51:56.647Z,1.42
2023-02-18T20:56:59.375Z,1.33
2023-02-18T21:02:01.526Z,1.80
2023-02-18T21:07:03.462Z,1.38
2023-02-18T21:12:05.476Z,1.80
2023-02-18T21:17:08.563Z,1.30
2023-02-18T21:22:11.338Z,1.83
2023-02-18T21:27:13.144Z,1.40
2023-02-18T21:32:15.058Z,1.58
2023-02-18T21:37:17.372Z,1.60
2023-02-18T21:42:19.443Z,1.80
2023-02-18T21:47:21.645Z,1.50
2023-02-18T21:52:27.157Z,2.30
2023-02-18T21:57:29.041Z,1.92
2023-02-18T22:02:32.797Z,1.90
2023-02-18T22:07:35.006Z,1.98
2023-02-18T22:12:36.801Z,1.92
2023-02-18T22:17:38.683Z,2.20
2023-02-18T22:22:40.546Z,1.77
2023-02-18T22:27:42.352Z,2.17
2023-02-18T22:32:44.162Z,2.90
2023-02-18T22:37:46.008Z,3.30
2023-02-18T22:42:47.837Z,2.67
2023-02-18T22:47:49.635Z,2.90
2023-02-18T22:52:51.467Z,3.10
2023-02-18T22:57:53.302Z,1.58
2023-02-18T23:02:55.174Z,2.10
2023-02-18T23:07:57.313Z,2.03
2023-02-18T23:12:59.184Z,1.98
2023-02-18T23:18:00.999Z,2.03
2023-02-18T23:23:02.847Z,2.20
2023-02-18T23:28:04.853Z,2.10
2023-02-18T23:33:06.716Z,2.13
2023-02-18T23:38:09.299Z,2.25
2023-02-18T23:43:11.152Z,2.42
2023-02-18T23:48:13.206Z,2.40
2023-02-18T23:53:15.031Z,2.08
2023-02-18T23:58:16.855Z,2.35
